Deir Ezzor, Syria
Current Conditions -  °F | °C
As of 4:50 PM on Monday 22 Dec 2014 (Local Time) from LTCR Reporting Station
Moderate Rain Moderate Rain  
Wind Chill: 42°   Ceiling: 3000
Heat Index: 46°   Visibility: 2.7mi
Dew Point: 45°   Wind: 9mph
Humidity: 93%   Direction: 40°NE
Pressure: 29.94"   Gusts: NA
Location:  35.32°N, 40.15°E
Report Text: LTCR 221350Z 04008KT 4400 RA FEW011 BKN030 OVC080 08/07 Q1014
Loading
Personal Weather Stations






























Interactive Weather Map New forecast layout! Learn more

10-Day Weather Forecast

Advertisements
Track Severe Weather on mobile